sensor_id;sensor_type;location;lat;lon;timestamp;P1;durP1;ratioP1;P2;durP2;ratioP2
31978;SDS011;18502;43.574;1.276;2022-08-01T00:01:52;3.70;;;2.22;;
31978;SDS011;18502;43.574;1.276;2022-08-01T00:04:18;3.80;;;2.25;;
31978;SDS011;18502;43.574;1.276;2022-08-01T00:06:44;4.07;;;2.53;;
31978;SDS011;18502;43.574;1.276;2022-08-01T00:09:10;2.83;;;2.22;;
31978;SDS011;18502;43.574;1.276;2022-08-01T00:11:35;3.83;;;2.63;;
31978;SDS011;18502;43.574;1.276;2022-08-01T00:14:01;5.65;;;2.85;;
31978;SDS011;18502;43.574;1.276;2022-08-01T00:16:27;4.30;;;2.50;;
31978;SDS011;18502;43.574;1.276;2022-08-01T00:18:53;4.40;;;2.72;;
31978;SDS011;18502;43.574;1.276;2022-08-01T00:21:19;5.13;;;2.58;;
31978;SDS011;18502;43.574;1.276;2022-08-01T00:23:45;4.75;;;2.70;;
31978;SDS011;18502;43.574;1.276;2022-08-01T00:26:11;4.18;;;2.90;;
31978;SDS011;18502;43.574;1.276;2022-08-01T00:28:37;3.85;;;2.60;;
31978;SDS011;18502;43.574;1.276;2022-08-01T00:31:03;3.55;;;2.67;;
31978;SDS011;18502;43.574;1.276;2022-08-01T00:33:29;4.28;;;2.85;;
31978;SDS011;18502;43.574;1.276;2022-08-01T00:35:55;5.97;;;3.25;;
31978;SDS011;18502;43.574;1.276;2022-08-01T00:38:21;4.50;;;2.85;;
31978;SDS011;18502;43.574;1.276;2022-08-01T00:40:46;4.40;;;2.80;;
31978;SDS011;18502;43.574;1.276;2022-08-01T00:43:12;2.65;;;2.42;;
31978;SDS011;18502;43.574;1.276;2022-08-01T00:45:39;4.45;;;2.70;;
31978;SDS011;18502;43.574;1.276;2022-08-01T00:48:04;4.68;;;2.95;;
31978;SDS011;18502;43.574;1.276;2022-08-01T00:50:30;4.70;;;3.53;;
31978;SDS011;18502;43.574;1.276;2022-08-01T00:52:56;3.70;;;2.25;;
31978;SDS011;18502;43.574;1.276;2022-08-01T00:55:24;5.65;;;2.97;;
31978;SDS011;18502;43.574;1.276;2022-08-01T00:57:51;4.20;;;3.10;;
31978;SDS011;18502;43.574;1.276;2022-08-01T01:00:16;7.93;;;2.63;;
31978;SDS011;18502;43.574;1.276;2022-08-01T01:02:42;2.85;;;2.58;;
31978;SDS011;18502;43.574;1.276;2022-08-01T01:05:09;2.78;;;2.42;;
31978;SDS011;18502;43.574;1.276;2022-08-01T01:10:12;5.30;;;2.88;;
31978;SDS011;18502;43.574;1.276;2022-08-01T01:12:50;4.00;;;2.75;;
31978;SDS011;18502;43.574;1.276;2022-08-01T01:15:33;5.53;;;2.83;;
31978;SDS011;18502;43.574;1.276;2022-08-01T01:31:57;4.80;;;2.95;;
31978;SDS011;18502;43.574;1.276;2022-08-01T01:34:29;3.15;;;2.47;;
31978;SDS011;18502;43.574;1.276;2022-08-01T01:36:59;4.80;;;3.03;;
31978;SDS011;18502;43.574;1.276;2022-08-01T01:39:28;6.00;;;3.20;;
31978;SDS011;18502;43.574;1.276;2022-08-01T01:41:57;3.72;;;3.10;;
31978;SDS011;18502;43.574;1.276;2022-08-01T01:44:25;3.42;;;2.63;;
31978;SDS011;18502;43.574;1.276;2022-08-01T01:46:52;4.20;;;2.78;;
31978;SDS011;18502;43.574;1.276;2022-08-01T01:49:21;4.35;;;2.55;;
31978;SDS011;18502;43.574;1.276;2022-08-01T01:51:51;5.65;;;2.80;;
31978;SDS011;18502;43.574;1.276;2022-08-01T01:54:18;4.25;;;3.15;;
31978;SDS011;18502;43.574;1.276;2022-08-01T01:56:45;3.58;;;2.60;;
31978;SDS011;18502;43.574;1.276;2022-08-01T01:59:16;4.90;;;3.00;;
31978;SDS011;18502;43.574;1.276;2022-08-01T02:01:46;6.35;;;2.90;;
31978;SDS011;18502;43.574;1.276;2022-08-01T02:04:16;3.50;;;2.63;;
31978;SDS011;18502;43.574;1.276;2022-08-01T02:06:45;6.13;;;3.13;;
31978;SDS011;18502;43.574;1.276;2022-08-01T02:09:13;7.40;;;3.03;;
31978;SDS011;18502;43.574;1.276;2022-08-01T02:11:42;5.78;;;3.40;;
31978;SDS011;18502;43.574;1.276;2022-08-01T02:14:12;4.45;;;2.92;;
31978;SDS011;18502;43.574;1.276;2022-08-01T02:16:39;3.58;;;2.60;;
31978;SDS011;18502;43.574;1.276;2022-08-01T02:19:08;3.42;;;2.55;;
31978;SDS011;18502;43.574;1.276;2022-08-01T02:21:46;3.00;;;2.55;;
31978;SDS011;18502;43.574;1.276;2022-08-01T02:24:14;3.50;;;2.80;;
31978;SDS011;18502;43.574;1.276;2022-08-01T02:27:05;2.93;;;2.57;;
31978;SDS011;18502;43.574;1.276;2022-08-01T02:29:45;4.22;;;2.95;;
31978;SDS011;18502;43.574;1.276;2022-08-01T02:32:19;4.38;;;2.88;;
31978;SDS011;18502;43.574;1.276;2022-08-01T02:34:49;4.90;;;3.35;;
31978;SDS011;18502;43.574;1.276;2022-08-01T02:37:18;3.43;;;2.53;;
31978;SDS011;18502;43.574;1.276;2022-08-01T02:39:47;4.82;;;2.58;;
31978;SDS011;18502;43.574;1.276;2022-08-01T02:42:16;3.95;;;3.10;;
31978;SDS011;18502;43.574;1.276;2022-08-01T02:44:44;5.97;;;3.05;;
31978;SDS011;18502;43.574;1.276;2022-08-01T02:47:12;5.28;;;3.20;;
31978;SDS011;18502;43.574;1.276;2022-08-01T02:49:42;3.88;;;2.78;;
31978;SDS011;18502;43.574;1.276;2022-08-01T02:52:11;6.25;;;3.33;;
31978;SDS011;18502;43.574;1.276;2022-08-01T02:54:40;4.03;;;3.08;;
31978;SDS011;18502;43.574;1.276;2022-08-01T02:57:08;3.13;;;2.53;;
31978;SDS011;18502;43.574;1.276;2022-08-01T02:59:36;5.32;;;3.20;;
31978;SDS011;18502;43.574;1.276;2022-08-01T03:02:03;4.38;;;2.67;;
31978;SDS011;18502;43.574;1.276;2022-08-01T03:04:31;5.55;;;2.75;;
31978;SDS011;18502;43.574;1.276;2022-08-01T03:06:59;3.88;;;3.00;;
31978;SDS011;18502;43.574;1.276;2022-08-01T03:09:27;6.15;;;3.08;;
31978;SDS011;18502;43.574;1.276;2022-08-01T03:11:55;4.63;;;3.50;;
31978;SDS011;18502;43.574;1.276;2022-08-01T03:14:25;5.00;;;2.95;;
31978;SDS011;18502;43.574;1.276;2022-08-01T03:16:51;5.88;;;3.13;;
31978;SDS011;18502;43.574;1.276;2022-08-01T03:19:17;4.00;;;3.10;;
31978;SDS011;18502;43.574;1.276;2022-08-01T03:21:45;3.15;;;2.85;;
31978;SDS011;18502;43.574;1.276;2022-08-01T03:24:12;4.80;;;3.13;;
31978;SDS011;18502;43.574;1.276;2022-08-01T03:26:39;4.55;;;2.83;;
31978;SDS011;18502;43.574;1.276;2022-08-01T03:29:08;5.65;;;3.67;;
31978;SDS011;18502;43.574;1.276;2022-08-01T03:31:37;3.67;;;2.88;;
31978;SDS011;18502;43.574;1.276;2022-08-01T03:34:07;6.22;;;3.53;;
31978;SDS011;18502;43.574;1.276;2022-08-01T03:36:33;5.97;;;2.90;;
31978;SDS011;18502;43.574;1.276;2022-08-01T03:39:11;4.80;;;2.95;;
31978;SDS011;18502;43.574;1.276;2022-08-01T03:41:40;8.48;;;3.38;;
31978;SDS011;18502;43.574;1.276;2022-08-01T03:44:13;4.65;;;2.72;;
31978;SDS011;18502;43.574;1.276;2022-08-01T03:46:47;4.43;;;2.97;;
31978;SDS011;18502;43.574;1.276;2022-08-01T03:49:17;3.83;;;2.65;;
31978;SDS011;18502;43.574;1.276;2022-08-01T03:51:48;5.82;;;2.85;;
31978;SDS011;18502;43.574;1.276;2022-08-01T03:54:16;6.97;;;3.03;;
31978;SDS011;18502;43.574;1.276;2022-08-01T03:56:45;7.93;;;3.20;;
31978;SDS011;18502;43.574;1.276;2022-08-01T03:59:12;5.80;;;2.95;;
31978;SDS011;18502;43.574;1.276;2022-08-01T04:01:41;9.18;;;3.42;;
31978;SDS011;18502;43.574;1.276;2022-08-01T04:04:08;5.70;;;3.00;;
31978;SDS011;18502;43.574;1.276;2022-08-01T04:06:37;5.20;;;3.72;;
31978;SDS011;18502;43.574;1.276;2022-08-01T04:09:09;5.57;;;3.15;;
31978;SDS011;18502;43.574;1.276;2022-08-01T04:11:35;5.72;;;3.22;;
31978;SDS011;18502;43.574;1.276;2022-08-01T04:14:00;6.13;;;2.80;;
31978;SDS011;18502;43.574;1.276;2022-08-01T04:16:26;5.47;;;3.10;;
31978;SDS011;18502;43.574;1.276;2022-08-01T04:18:52;5.22;;;3.20;;
31978;SDS011;18502;43.574;1.276;2022-08-01T04:21:18;4.25;;;3.00;;
31978;SDS011;18502;43.574;1.276;2022-08-01T04:23:48;4.70;;;2.72;;
31978;SDS011;18502;43.574;1.276;2022-08-01T04:26:16;7.60;;;3.80;;
31978;SDS011;18502;43.574;1.276;2022-08-01T04:28:44;4.53;;;3.15;;
31978;SDS011;18502;43.574;1.276;2022-08-01T04:31:11;5.07;;;3.33;;
31978;SDS011;18502;43.574;1.276;2022-08-01T04:33:40;6.38;;;3.38;;
31978;SDS011;18502;43.574;1.276;2022-08-01T04:36:10;8.23;;;3.53;;
31978;SDS011;18502;43.574;1.276;2022-08-01T04:38:38;5.82;;;3.55;;
31978;SDS011;18502;43.574;1.276;2022-08-01T04:41:07;3.67;;;3.33;;
31978;SDS011;18502;43.574;1.276;2022-08-01T04:43:36;5.85;;;3.45;;
31978;SDS011;18502;43.574;1.276;2022-08-01T04:46:03;6.15;;;3.47;;
31978;SDS011;18502;43.574;1.276;2022-08-01T04:48:31;6.90;;;3.92;;
31978;SDS011;18502;43.574;1.276;2022-08-01T04:50:59;8.48;;;4.47;;
31978;SDS011;18502;43.574;1.276;2022-08-01T04:53:25;7.93;;;4.60;;
31978;SDS011;18502;43.574;1.276;2022-08-01T04:55:51;8.00;;;4.35;;
31978;SDS011;18502;43.574;1.276;2022-08-01T04:58:17;6.80;;;4.30;;
31978;SDS011;18502;43.574;1.276;2022-08-01T05:00:43;7.28;;;3.95;;
31978;SDS011;18502;43.574;1.276;2022-08-01T05:03:08;9.02;;;4.05;;
31978;SDS011;18502;43.574;1.276;2022-08-01T05:05:34;7.65;;;4.65;;
31978;SDS011;18502;43.574;1.276;2022-08-01T05:08:00;6.10;;;4.57;;
31978;SDS011;18502;43.574;1.276;2022-08-01T05:10:26;7.60;;;4.28;;
31978;SDS011;18502;43.574;1.276;2022-08-01T05:12:52;6.93;;;4.20;;
31978;SDS011;18502;43.574;1.276;2022-08-01T05:15:18;6.82;;;4.88;;
31978;SDS011;18502;43.574;1.276;2022-08-01T05:17:43;13.70;;;4.85;;
31978;SDS011;18502;43.574;1.276;2022-08-01T05:20:09;6.88;;;4.97;;
31978;SDS011;18502;43.574;1.276;2022-08-01T05:22:36;11.10;;;5.93;;
31978;SDS011;18502;43.574;1.276;2022-08-01T05:25:03;9.38;;;5.53;;
31978;SDS011;18502;43.574;1.276;2022-08-01T05:27:30;7.75;;;5.25;;
31978;SDS011;18502;43.574;1.276;2022-08-01T05:29:56;11.00;;;5.80;;
31978;SDS011;18502;43.574;1.276;2022-08-01T05:32:21;7.65;;;5.47;;
31978;SDS011;18502;43.574;1.276;2022-08-01T05:34:47;8.85;;;5.70;;
31978;SDS011;18502;43.574;1.276;2022-08-01T05:37:13;10.65;;;5.57;;
31978;SDS011;18502;43.574;1.276;2022-08-01T05:39:39;7.65;;;5.65;;
31978;SDS011;18502;43.574;1.276;2022-08-01T05:42:04;10.52;;;5.78;;
31978;SDS011;18502;43.574;1.276;2022-08-01T05:44:30;7.53;;;5.45;;
31978;SDS011;18502;43.574;1.276;2022-08-01T05:46:56;8.02;;;5.47;;
31978;SDS011;18502;43.574;1.276;2022-08-01T05:49:21;8.70;;;6.22;;
31978;SDS011;18502;43.574;1.276;2022-08-01T05:51:47;9.60;;;5.80;;
31978;SDS011;18502;43.574;1.276;2022-08-01T05:54:13;9.63;;;6.38;;
31978;SDS011;18502;43.574;1.276;2022-08-01T05:56:39;11.25;;;6.35;;
31978;SDS011;18502;43.574;1.276;2022-08-01T05:59:04;8.70;;;6.43;;
31978;SDS011;18502;43.574;1.276;2022-08-01T06:01:30;10.30;;;6.68;;
31978;SDS011;18502;43.574;1.276;2022-08-01T06:03:56;7.68;;;6.35;;
31978;SDS011;18502;43.574;1.276;2022-08-01T06:06:21;8.52;;;6.63;;
31978;SDS011;18502;43.574;1.276;2022-08-01T06:08:47;10.55;;;6.82;;
31978;SDS011;18502;43.574;1.276;2022-08-01T06:11:13;10.23;;;7.38;;
31978;SDS011;18502;43.574;1.276;2022-08-01T06:13:39;9.20;;;6.43;;
31978;SDS011;18502;43.574;1.276;2022-08-01T06:16:05;9.57;;;6.68;;
31978;SDS011;18502;43.574;1.276;2022-08-01T06:18:30;8.23;;;6.32;;
31978;SDS011;18502;43.574;1.276;2022-08-01T06:20:56;13.82;;;7.03;;
31978;SDS011;18502;43.574;1.276;2022-08-01T06:23:22;9.60;;;7.07;;
31978;SDS011;18502;43.574;1.276;2022-08-01T06:25:47;10.52;;;7.32;;
31978;SDS011;18502;43.574;1.276;2022-08-01T06:28:16;8.07;;;6.80;;
31978;SDS011;18502;43.574;1.276;2022-08-01T06:30:42;11.80;;;7.07;;
31978;SDS011;18502;43.574;1.276;2022-08-01T06:33:07;14.13;;;7.18;;
31978;SDS011;18502;43.574;1.276;2022-08-01T06:35:33;12.55;;;7.47;;
31978;SDS011;18502;43.574;1.276;2022-08-01T06:37:59;9.73;;;7.25;;
31978;SDS011;18502;43.574;1.276;2022-08-01T06:40:25;9.82;;;7.03;;
31978;SDS011;18502;43.574;1.276;2022-08-01T06:42:50;9.45;;;6.90;;
31978;SDS011;18502;43.574;1.276;2022-08-01T06:45:16;9.20;;;7.53;;
31978;SDS011;18502;43.574;1.276;2022-08-01T06:47:43;14.73;;;6.78;;
31978;SDS011;18502;43.574;1.276;2022-08-01T06:50:09;9.23;;;6.53;;
31978;SDS011;18502;43.574;1.276;2022-08-01T06:52:35;9.70;;;6.80;;
31978;SDS011;18502;43.574;1.276;2022-08-01T06:55:01;8.60;;;7.03;;
31978;SDS011;18502;43.574;1.276;2022-08-01T06:57:27;8.90;;;6.82;;
31978;SDS011;18502;43.574;1.276;2022-08-01T06:59:54;10.35;;;6.75;;
31978;SDS011;18502;43.574;1.276;2022-08-01T07:02:21;11.07;;;6.38;;
31978;SDS011;18502;43.574;1.276;2022-08-01T07:04:47;11.45;;;6.80;;
31978;SDS011;18502;43.574;1.276;2022-08-01T07:07:13;7.72;;;6.55;;
31978;SDS011;18502;43.574;1.276;2022-08-01T07:09:38;13.30;;;6.47;;
31978;SDS011;18502;43.574;1.276;2022-08-01T07:12:06;13.45;;;6.75;;
31978;SDS011;18502;43.574;1.276;2022-08-01T07:14:32;9.75;;;5.82;;
31978;SDS011;18502;43.574;1.276;2022-08-01T07:16:58;15.18;;;6.95;;
31978;SDS011;18502;43.574;1.276;2022-08-01T07:19:24;12.13;;;6.30;;
31978;SDS011;18502;43.574;1.276;2022-08-01T07:21:51;10.60;;;6.53;;
31978;SDS011;18502;43.574;1.276;2022-08-01T07:24:17;7.35;;;5.88;;
31978;SDS011;18502;43.574;1.276;2022-08-01T07:26:43;12.05;;;6.20;;
31978;SDS011;18502;43.574;1.276;2022-08-01T07:29:10;9.02;;;6.65;;
31978;SDS011;18502;43.574;1.276;2022-08-01T07:31:36;8.25;;;6.00;;
31978;SDS011;18502;43.574;1.276;2022-08-01T07:34:02;7.85;;;5.75;;
31978;SDS011;18502;43.574;1.276;2022-08-01T07:36:28;7.45;;;5.93;;
31978;SDS011;18502;43.574;1.276;2022-08-01T07:38:53;8.38;;;6.00;;
31978;SDS011;18502;43.574;1.276;2022-08-01T07:41:19;11.05;;;5.70;;
31978;SDS011;18502;43.574;1.276;2022-08-01T07:43:45;7.55;;;5.63;;
31978;SDS011;18502;43.574;1.276;2022-08-01T07:46:12;7.80;;;5.82;;
31978;SDS011;18502;43.574;1.276;2022-08-01T07:48:38;7.80;;;5.43;;
31978;SDS011;18502;43.574;1.276;2022-08-01T07:51:03;8.90;;;5.10;;
31978;SDS011;18502;43.574;1.276;2022-08-01T07:53:29;7.97;;;5.32;;
31978;SDS011;18502;43.574;1.276;2022-08-01T07:55:55;6.45;;;5.25;;
31978;SDS011;18502;43.574;1.276;2022-08-01T07:58:21;7.05;;;5.18;;
31978;SDS011;18502;43.574;1.276;2022-08-01T08:00:46;7.40;;;5.40;;
31978;SDS011;18502;43.574;1.276;2022-08-01T08:03:12;6.05;;;4.90;;
31978;SDS011;18502;43.574;1.276;2022-08-01T08:05:38;7.53;;;5.50;;
31978;SDS011;18502;43.574;1.276;2022-08-01T08:08:07;11.23;;;5.25;;
31978;SDS011;18502;43.574;1.276;2022-08-01T08:10:34;9.85;;;5.43;;
31978;SDS011;18502;43.574;1.276;2022-08-01T08:13:00;9.05;;;5.80;;
31978;SDS011;18502;43.574;1.276;2022-08-01T08:15:26;7.22;;;5.60;;
31978;SDS011;18502;43.574;1.276;2022-08-01T08:17:52;7.70;;;5.20;;
31978;SDS011;18502;43.574;1.276;2022-08-01T08:20:18;6.75;;;5.55;;
31978;SDS011;18502;43.574;1.276;2022-08-01T08:22:46;6.38;;;5.03;;
31978;SDS011;18502;43.574;1.276;2022-08-01T08:25:12;9.70;;;5.60;;
31978;SDS011;18502;43.574;1.276;2022-08-01T08:27:37;7.97;;;5.90;;
31978;SDS011;18502;43.574;1.276;2022-08-01T08:30:04;6.50;;;5.05;;
31978;SDS011;18502;43.574;1.276;2022-08-01T08:32:34;5.45;;;4.70;;
31978;SDS011;18502;43.574;1.276;2022-08-01T08:35:00;9.02;;;5.57;;
31978;SDS011;18502;43.574;1.276;2022-08-01T08:37:26;7.07;;;4.65;;
31978;SDS011;18502;43.574;1.276;2022-08-01T08:39:52;6.68;;;5.05;;
31978;SDS011;18502;43.574;1.276;2022-08-01T08:42:17;12.23;;;5.32;;
31978;SDS011;18502;43.574;1.276;2022-08-01T08:44:43;8.38;;;5.10;;
31978;SDS011;18502;43.574;1.276;2022-08-01T08:47:11;6.90;;;5.50;;
31978;SDS011;18502;43.574;1.276;2022-08-01T08:49:38;6.15;;;4.82;;
31978;SDS011;18502;43.574;1.276;2022-08-01T08:52:06;7.97;;;4.97;;
31978;SDS011;18502;43.574;1.276;2022-08-01T08:54:34;6.30;;;4.60;;
31978;SDS011;18502;43.574;1.276;2022-08-01T08:57:02;5.90;;;4.70;;
31978;SDS011;18502;43.574;1.276;2022-08-01T08:59:28;7.38;;;5.07;;
31978;SDS011;18502;43.574;1.276;2022-08-01T09:01:55;7.35;;;5.68;;
31978;SDS011;18502;43.574;1.276;2022-08-01T09:04:21;6.55;;;5.13;;
31978;SDS011;18502;43.574;1.276;2022-08-01T09:06:48;6.95;;;5.57;;
31978;SDS011;18502;43.574;1.276;2022-08-01T09:09:13;6.68;;;5.32;;
31978;SDS011;18502;43.574;1.276;2022-08-01T09:11:39;6.80;;;5.53;;
31978;SDS011;18502;43.574;1.276;2022-08-01T09:16:58;9.63;;;6.05;;
31978;SDS011;18502;43.574;1.276;2022-08-01T09:19:39;8.77;;;5.47;;
31978;SDS011;18502;43.574;1.276;2022-08-01T09:22:07;8.80;;;5.40;;
31978;SDS011;18502;43.574;1.276;2022-08-01T09:24:38;7.88;;;5.70;;
31978;SDS011;18502;43.574;1.276;2022-08-01T09:27:15;8.73;;;5.20;;
31978;SDS011;18502;43.574;1.276;2022-08-01T09:29:45;7.03;;;5.35;;
31978;SDS011;18502;43.574;1.276;2022-08-01T09:32:10;6.47;;;5.85;;
31978;SDS011;18502;43.574;1.276;2022-08-01T09:34:36;10.77;;;5.78;;
31978;SDS011;18502;43.574;1.276;2022-08-01T09:37:02;8.35;;;5.70;;
31978;SDS011;18502;43.574;1.276;2022-08-01T09:39:34;6.00;;;5.40;;
31978;SDS011;18502;43.574;1.276;2022-08-01T09:42:28;6.90;;;5.13;;
31978;SDS011;18502;43.574;1.276;2022-08-01T09:44:53;9.73;;;5.70;;
31978;SDS011;18502;43.574;1.276;2022-08-01T09:47:19;11.10;;;5.38;;
31978;SDS011;18502;43.574;1.276;2022-08-01T09:49:53;6.07;;;4.88;;
31978;SDS011;18502;43.574;1.276;2022-08-01T09:52:23;7.50;;;5.35;;
31978;SDS011;18502;43.574;1.276;2022-08-01T09:54:54;7.93;;;5.70;;
31978;SDS011;18502;43.574;1.276;2022-08-01T09:57:21;8.68;;;5.82;;
31978;SDS011;18502;43.574;1.276;2022-08-01T09:59:48;6.53;;;5.93;;
31978;SDS011;18502;43.574;1.276;2022-08-01T10:02:34;7.78;;;5.32;;
31978;SDS011;18502;43.574;1.276;2022-08-01T10:05:02;6.78;;;5.47;;
31978;SDS011;18502;43.574;1.276;2022-08-01T10:07:31;6.95;;;5.63;;
31978;SDS011;18502;43.574;1.276;2022-08-01T10:10:13;8.68;;;5.70;;
31978;SDS011;18502;43.574;1.276;2022-08-01T10:12:40;7.15;;;4.78;;
31978;SDS011;18502;43.574;1.276;2022-08-01T10:15:07;7.45;;;5.45;;
31978;SDS011;18502;43.574;1.276;2022-08-01T10:17:34;6.00;;;4.57;;
31978;SDS011;18502;43.574;1.276;2022-08-01T10:20:02;6.57;;;5.05;;
31978;SDS011;18502;43.574;1.276;2022-08-01T10:22:29;7.95;;;4.85;;
31978;SDS011;18502;43.574;1.276;2022-08-01T10:24:56;5.72;;;5.15;;
31978;SDS011;18502;43.574;1.276;2022-08-01T10:27:24;9.07;;;4.88;;
31978;SDS011;18502;43.574;1.276;2022-08-01T10:29:58;7.00;;;5.10;;
31978;SDS011;18502;43.574;1.276;2022-08-01T10:32:33;6.30;;;4.68;;
31978;SDS011;18502;43.574;1.276;2022-08-01T10:35:00;5.40;;;4.53;;
31978;SDS011;18502;43.574;1.276;2022-08-01T10:37:28;8.25;;;5.45;;
31978;SDS011;18502;43.574;1.276;2022-08-01T10:39:54;7.63;;;5.55;;
31978;SDS011;18502;43.574;1.276;2022-08-01T10:42:20;4.63;;;4.22;;
31978;SDS011;18502;43.574;1.276;2022-08-01T10:44:47;5.15;;;4.28;;
31978;SDS011;18502;43.574;1.276;2022-08-01T10:47:14;7.45;;;4.65;;
31978;SDS011;18502;43.574;1.276;2022-08-01T10:49:47;5.50;;;4.57;;
31978;SDS011;18502;43.574;1.276;2022-08-01T10:52:19;6.60;;;4.60;;
31978;SDS011;18502;43.574;1.276;2022-08-01T10:54:46;6.57;;;4.90;;
31978;SDS011;18502;43.574;1.276;2022-08-01T10:57:12;7.10;;;4.57;;
31978;SDS011;18502;43.574;1.276;2022-08-01T10:59:50;5.95;;;4.50;;
31978;SDS011;18502;43.574;1.276;2022-08-01T11:02:27;7.43;;;4.68;;
31978;SDS011;18502;43.574;1.276;2022-08-01T11:04:58;7.20;;;4.60;;
31978;SDS011;18502;43.574;1.276;2022-08-01T11:07:43;6.60;;;4.40;;
31978;SDS011;18502;43.574;1.276;2022-08-01T11:10:22;4.72;;;4.25;;
31978;SDS011;18502;43.574;1.276;2022-08-01T11:13:10;7.88;;;4.57;;
31978;SDS011;18502;43.574;1.276;2022-08-01T11:15:40;7.22;;;4.53;;
31978;SDS011;18502;43.574;1.276;2022-08-01T11:20:59;7.95;;;4.60;;
31978;SDS011;18502;43.574;1.276;2022-08-01T11:23:28;6.07;;;4.85;;
31978;SDS011;18502;43.574;1.276;2022-08-01T11:28:21;10.10;;;4.15;;
31978;SDS011;18502;43.574;1.276;2022-08-01T11:30:49;6.78;;;4.40;;
31978;SDS011;18502;43.574;1.276;2022-08-01T11:33:17;6.63;;;3.80;;
31978;SDS011;18502;43.574;1.276;2022-08-01T11:38:35;5.68;;;3.63;;
31978;SDS011;18502;43.574;1.276;2022-08-01T11:41:21;5.03;;;3.40;;
31978;SDS011;18502;43.574;1.276;2022-08-01T11:44:05;6.68;;;3.38;;
31978;SDS011;18502;43.574;1.276;2022-08-01T11:54:29;6.85;;;3.80;;
31978;SDS011;18502;43.574;1.276;2022-08-01T11:57:06;3.15;;;2.85;;
31978;SDS011;18502;43.574;1.276;2022-08-01T11:59:43;3.60;;;3.28;;
31978;SDS011;18502;43.574;1.276;2022-08-01T12:05:05;4.80;;;3.55;;
31978;SDS011;18502;43.574;1.276;2022-08-01T12:07:33;3.47;;;2.60;;
31978;SDS011;18502;43.574;1.276;2022-08-01T12:12:26;6.93;;;3.05;;
31978;SDS011;18502;43.574;1.276;2022-08-01T12:14:53;4.85;;;4.10;;
31978;SDS011;18502;43.574;1.276;2022-08-01T12:17:27;5.22;;;3.20;;
31978;SDS011;18502;43.574;1.276;2022-08-01T12:19:54;3.55;;;3.20;;
31978;SDS011;18502;43.574;1.276;2022-08-01T12:22:21;5.60;;;2.67;;
31978;SDS011;18502;43.574;1.276;2022-08-01T12:24:48;4.28;;;2.88;;
31978;SDS011;18502;43.574;1.276;2022-08-01T12:27:23;4.93;;;3.15;;
31978;SDS011;18502;43.574;1.276;2022-08-01T12:29:53;4.65;;;3.40;;
31978;SDS011;18502;43.574;1.276;2022-08-01T12:32:20;5.18;;;3.10;;
31978;SDS011;18502;43.574;1.276;2022-08-01T12:34:54;2.50;;;2.28;;
31978;SDS011;18502;43.574;1.276;2022-08-01T12:37:21;6.10;;;2.90;;
31978;SDS011;18502;43.574;1.276;2022-08-01T12:39:47;6.30;;;2.58;;
31978;SDS011;18502;43.574;1.276;2022-08-01T12:42:13;4.32;;;2.20;;
31978;SDS011;18502;43.574;1.276;2022-08-01T12:44:39;4.65;;;2.35;;
31978;SDS011;18502;43.574;1.276;2022-08-01T12:47:07;3.55;;;2.78;;
31978;SDS011;18502;43.574;1.276;2022-08-01T12:49:37;4.40;;;2.70;;
31978;SDS011;18502;43.574;1.276;2022-08-01T12:52:05;5.00;;;2.60;;
31978;SDS011;18502;43.574;1.276;2022-08-01T12:54:59;3.92;;;2.30;;
31978;SDS011;18502;43.574;1.276;2022-08-01T12:57:31;3.35;;;2.45;;
31978;SDS011;18502;43.574;1.276;2022-08-01T13:02:45;5.97;;;2.63;;
31978;SDS011;18502;43.574;1.276;2022-08-01T13:05:12;3.33;;;2.50;;
31978;SDS011;18502;43.574;1.276;2022-08-01T13:07:40;5.68;;;2.70;;
31978;SDS011;18502;43.574;1.276;2022-08-01T13:10:10;2.80;;;2.53;;
31978;SDS011;18502;43.574;1.276;2022-08-01T13:12:37;2.30;;;2.00;;
31978;SDS011;18502;43.574;1.276;2022-08-01T13:15:20;3.88;;;2.38;;
31978;SDS011;18502;43.574;1.276;2022-08-01T13:17:48;2.63;;;2.33;;
31978;SDS011;18502;43.574;1.276;2022-08-01T13:22:48;5.30;;;2.42;;
31978;SDS011;18502;43.574;1.276;2022-08-01T13:25:15;3.50;;;2.50;;
31978;SDS011;18502;43.574;1.276;2022-08-01T13:27:41;2.72;;;2.30;;
31978;SDS011;18502;43.574;1.276;2022-08-01T13:30:14;3.13;;;2.65;;
31978;SDS011;18502;43.574;1.276;2022-08-01T13:32:41;3.13;;;2.28;;
31978;SDS011;18502;43.574;1.276;2022-08-01T13:35:11;3.33;;;2.60;;
31978;SDS011;18502;43.574;1.276;2022-08-01T13:37:41;4.63;;;2.37;;
31978;SDS011;18502;43.574;1.276;2022-08-01T13:40:08;2.40;;;2.20;;
31978;SDS011;18502;43.574;1.276;2022-08-01T13:42:35;4.37;;;2.27;;
31978;SDS011;18502;43.574;1.276;2022-08-01T13:45:01;4.10;;;2.63;;
31978;SDS011;18502;43.574;1.276;2022-08-01T13:47:34;4.95;;;2.70;;
31978;SDS011;18502;43.574;1.276;2022-08-01T13:50:00;3.40;;;2.70;;
31978;SDS011;18502;43.574;1.276;2022-08-01T13:52:27;4.90;;;2.60;;
31978;SDS011;18502;43.574;1.276;2022-08-01T13:54:53;3.10;;;2.67;;
31978;SDS011;18502;43.574;1.276;2022-08-01T13:57:19;2.53;;;2.30;;
31978;SDS011;18502;43.574;1.276;2022-08-01T13:59:45;2.55;;;2.15;;
31978;SDS011;18502;43.574;1.276;2022-08-01T14:02:11;3.65;;;2.35;;
31978;SDS011;18502;43.574;1.276;2022-08-01T14:04:36;3.22;;;2.13;;
31978;SDS011;18502;43.574;1.276;2022-08-01T14:07:02;3.90;;;2.30;;
31978;SDS011;18502;43.574;1.276;2022-08-01T14:09:28;3.40;;;1.98;;
31978;SDS011;18502;43.574;1.276;2022-08-01T14:11:53;5.18;;;2.22;;
31978;SDS011;18502;43.574;1.276;2022-08-01T14:14:19;3.20;;;2.08;;
31978;SDS011;18502;43.574;1.276;2022-08-01T14:16:45;2.80;;;1.90;;
31978;SDS011;18502;43.574;1.276;2022-08-01T14:19:11;2.40;;;2.15;;
31978;SDS011;18502;43.574;1.276;2022-08-01T14:21:36;4.63;;;2.03;;
31978;SDS011;18502;43.574;1.276;2022-08-01T14:24:02;2.53;;;2.10;;
31978;SDS011;18502;43.574;1.276;2022-08-01T14:26:28;2.20;;;2.10;;
31978;SDS011;18502;43.574;1.276;2022-08-01T14:28:53;2.95;;;2.20;;
31978;SDS011;18502;43.574;1.276;2022-08-01T14:31:19;17.85;;;2.85;;
31978;SDS011;18502;43.574;1.276;2022-08-01T14:33:45;2.30;;;2.10;;
31978;SDS011;18502;43.574;1.276;2022-08-01T14:36:11;4.88;;;2.67;;
31978;SDS011;18502;43.574;1.276;2022-08-01T14:38:36;2.90;;;2.15;;
31978;SDS011;18502;43.574;1.276;2022-08-01T14:41:02;2.72;;;2.15;;
31978;SDS011;18502;43.574;1.276;2022-08-01T14:43:28;2.53;;;2.10;;
31978;SDS011;18502;43.574;1.276;2022-08-01T14:45:54;2.50;;;2.30;;
31978;SDS011;18502;43.574;1.276;2022-08-01T14:48:19;4.05;;;2.13;;
31978;SDS011;18502;43.574;1.276;2022-08-01T14:50:45;2.55;;;2.35;;
31978;SDS011;18502;43.574;1.276;2022-08-01T14:53:11;4.15;;;2.05;;
31978;SDS011;18502;43.574;1.276;2022-08-01T14:55:37;2.60;;;1.98;;
31978;SDS011;18502;43.574;1.276;2022-08-01T14:58:03;3.15;;;2.55;;
31978;SDS011;18502;43.574;1.276;2022-08-01T15:00:29;3.00;;;2.70;;
31978;SDS011;18502;43.574;1.276;2022-08-01T15:02:54;2.58;;;2.38;;
31978;SDS011;18502;43.574;1.276;2022-08-01T15:05:20;4.40;;;2.30;;
31978;SDS011;18502;43.574;1.276;2022-08-01T15:07:46;3.30;;;2.17;;
31978;SDS011;18502;43.574;1.276;2022-08-01T15:10:12;3.40;;;2.30;;
31978;SDS011;18502;43.574;1.276;2022-08-01T15:12:38;4.70;;;2.78;;
31978;SDS011;18502;43.574;1.276;2022-08-01T15:15:04;3.08;;;1.83;;
31978;SDS011;18502;43.574;1.276;2022-08-01T15:17:31;3.83;;;2.17;;
31978;SDS011;18502;43.574;1.276;2022-08-01T15:19:59;2.17;;;1.90;;
31978;SDS011;18502;43.574;1.276;2022-08-01T15:22:26;2.10;;;2.00;;
31978;SDS011;18502;43.574;1.276;2022-08-01T15:24:53;2.17;;;2.07;;
31978;SDS011;18502;43.574;1.276;2022-08-01T15:27:20;2.57;;;1.80;;
31978;SDS011;18502;43.574;1.276;2022-08-01T15:29:46;2.45;;;2.25;;
31978;SDS011;18502;43.574;1.276;2022-08-01T15:32:12;15.70;;;12.43;;
31978;SDS011;18502;43.574;1.276;2022-08-01T15:34:39;3.30;;;2.55;;
31978;SDS011;18502;43.574;1.276;2022-08-01T15:37:05;3.03;;;2.33;;